createdAt,value
2023-04-22T00:00:36.628Z,10.50
2023-04-22T00:03:24.719Z,10.50
2023-04-22T00:06:11.870Z,10.50
2023-04-22T00:08:58.766Z,10.50
2023-04-22T00:11:45.529Z,10.40
2023-04-22T00:14:32.202Z,10.40
2023-04-22T00:17:19.602Z,10.40
2023-04-22T00:20:10.782Z,10.40
2023-04-22T00:22:57.192Z,10.30
2023-04-22T00:25:43.900Z,10.30
2023-04-22T00:28:30.812Z,10.30
2023-04-22T00:31:17.877Z,10.20
2023-04-22T00:34:04.743Z,10.10
2023-04-22T00:36:52.536Z,10.20
2023-04-22T00:39:40.223Z,10.20
2023-04-22T00:42:27.887Z,10.10
2023-04-22T00:45:17.891Z,10.10
2023-04-22T00:48:05.291Z,10.10
2023-04-22T00:50:51.770Z,10.20
2023-04-22T00:53:39.591Z,10.30
2023-04-22T00:56:28.337Z,10.30
2023-04-22T00:59:14.694Z,10.20
2023-04-22T01:02:01.631Z,10.20
2023-04-22T01:04:48.790Z,10.20
2023-04-22T01:07:35.758Z,10.20
2023-04-22T01:10:23.886Z,10.10
2023-04-22T01:13:11.575Z,10.20
2023-04-22T01:15:59.720Z,10.40
2023-04-22T01:18:46.258Z,10.50
2023-04-22T01:21:34.342Z,10.40
2023-04-22T01:24:23.008Z,10.40
2023-04-22T01:27:09.889Z,10.30
2023-04-22T01:29:56.949Z,10.30
2023-04-22T01:32:44.038Z,10.30
2023-04-22T01:35:36.717Z,10.30
2023-04-22T01:38:24.361Z,10.30
2023-04-22T01:41:12.429Z,10.30
2023-04-22T01:44:01.184Z,10.30
2023-04-22T01:46:47.770Z,10.30
2023-04-22T01:49:34.120Z,10.40
2023-04-22T01:52:20.419Z,10.50
2023-04-22T01:55:09.723Z,10.70
2023-04-22T01:57:57.816Z,10.80
2023-04-22T02:00:44.957Z,10.80
2023-04-22T02:03:31.756Z,10.80
2023-04-22T02:06:18.623Z,10.90
2023-04-22T02:09:05.694Z,10.80
2023-04-22T02:11:52.121Z,10.50
2023-04-22T02:14:42.395Z,10.40
2023-04-22T02:17:28.871Z,10.30
2023-04-22T02:20:15.204Z,10.40
2023-04-22T02:23:02.111Z,10.30
2023-04-22T02:25:50.885Z,10.40
2023-04-22T02:28:38.843Z,10.50
2023-04-22T02:31:27.114Z,10.50
2023-04-22T02:34:13.840Z,10.50
2023-04-22T02:37:00.324Z,10.40
2023-04-22T02:39:46.799Z,10.40
2023-04-22T02:42:33.189Z,10.40
2023-04-22T02:45:21.641Z,10.30
2023-04-22T02:48:09.340Z,10.30
2023-04-22T02:50:55.879Z,10.20
2023-04-22T02:53:43.012Z,10.30
2023-04-22T02:56:29.850Z,10.30
2023-04-22T02:59:16.701Z,10.30
2023-04-22T03:02:06.541Z,10.50
2023-04-22T03:05:14.607Z,10.60
2023-04-22T03:08:01.228Z,10.60
2023-04-22T03:10:49.585Z,10.50
2023-04-22T03:13:36.014Z,10.40
2023-04-22T03:16:24.662Z,10.30
2023-04-22T03:19:14.183Z,10.10
2023-04-22T03:22:02.012Z,10.00
2023-04-22T03:24:48.613Z,10.10
2023-04-22T03:27:35.640Z,9.70
2023-04-22T03:30:22.187Z,9.40
2023-04-22T03:33:09.138Z,9.30
2023-04-22T03:36:11.772Z,9.20
2023-04-22T03:39:00.135Z,9.20
2023-04-22T03:41:48.040Z,9.30
2023-04-22T03:44:34.926Z,9.30
2023-04-22T03:47:22.757Z,9.30
2023-04-22T03:50:17.318Z,9.30
2023-04-22T03:53:04.079Z,9.20
2023-04-22T03:55:52.371Z,9.40
2023-04-22T03:58:38.993Z,9.40
2023-04-22T04:01:27.863Z,9.60
2023-04-22T04:04:19.208Z,9.60
2023-04-22T04:07:15.086Z,9.70
2023-04-22T04:10:01.874Z,9.80
2023-04-22T04:12:50.109Z,9.90
2023-04-22T04:15:38.088Z,10.10
2023-04-22T04:18:25.678Z,10.00
2023-04-22T04:21:12.633Z,9.60
2023-04-22T04:24:06.784Z,9.30
2023-04-22T04:26:58.598Z,9.10
2023-04-22T04:29:52.932Z,9.00
2023-04-22T04:32:51.898Z,8.90
2023-04-22T04:35:38.871Z,8.90
2023-04-22T04:38:27.145Z,9.00
2023-04-22T04:41:14.372Z,8.90
2023-04-22T04:44:01.682Z,8.90
2023-04-22T04:46:56.223Z,8.70
2023-04-22T04:49:43.688Z,8.70
2023-04-22T04:52:32.194Z,8.80
2023-04-22T04:55:19.061Z,9.00
2023-04-22T04:58:07.002Z,9.10
2023-04-22T05:00:54.018Z,9.30
2023-04-22T05:03:42.969Z,9.50
2023-04-22T05:06:29.970Z,9.60
2023-04-22T05:09:21.865Z,9.70
2023-04-22T05:12:09.812Z,9.60
2023-04-22T05:14:57.053Z,9.70
2023-04-22T05:17:44.367Z,9.70
2023-04-22T05:20:35.385Z,9.80
2023-04-22T05:23:23.489Z,9.90
2023-04-22T05:26:14.970Z,10.00
2023-04-22T05:29:03.372Z,10.00
2023-04-22T05:31:49.845Z,10.00
2023-04-22T05:34:36.843Z,9.80
2023-04-22T05:37:25.194Z,9.80
2023-04-22T05:40:12.314Z,9.70
2023-04-22T05:42:59.285Z,9.30
2023-04-22T05:45:47.098Z,9.20
2023-04-22T05:48:35.157Z,9.20
2023-04-22T05:51:26.538Z,9.20
2023-04-22T05:54:14.423Z,9.30
2023-04-22T05:57:02.463Z,9.20
2023-04-22T05:59:49.556Z,9.30
2023-04-22T06:02:36.587Z,9.80
2023-04-22T06:05:23.307Z,10.40
2023-04-22T06:08:10.375Z,11.70
2023-04-22T06:10:58.061Z,13.10
2023-04-22T06:13:47.648Z,14.40
2023-04-22T06:16:35.174Z,15.10
2023-04-22T06:19:23.621Z,15.40
2023-04-22T06:22:10.466Z,15.40
2023-04-22T06:24:57.345Z,15.20
2023-04-22T06:27:45.744Z,14.90
2023-04-22T06:30:34.551Z,14.80
2023-04-22T06:33:20.907Z,14.20
2023-04-22T06:36:08.347Z,14.30
2023-04-22T06:38:56.694Z,14.90
2023-04-22T06:42:02.205Z,14.90
2023-04-22T06:45:09.526Z,15.10
2023-04-22T06:48:04.802Z,15.30
2023-04-22T06:51:06.212Z,15.50
2023-04-22T06:53:53.045Z,15.20
2023-04-22T06:56:39.556Z,15.10
2023-04-22T06:59:26.401Z,15.40
2023-04-22T07:02:14.689Z,15.80
2023-04-22T07:05:01.644Z,15.70
2023-04-22T07:07:48.980Z,16.00
2023-04-22T07:10:40.077Z,16.70
2023-04-22T07:13:50.624Z,17.20
2023-04-22T07:16:36.968Z,17.90
2023-04-22T07:19:25.416Z,18.60
2023-04-22T07:22:11.859Z,19.10
2023-04-22T07:24:58.422Z,19.40
2023-04-22T07:27:44.937Z,20.00
2023-04-22T07:30:31.673Z,20.30
2023-04-22T07:33:18.408Z,20.70
2023-04-22T07:36:07.149Z,21.00
2023-04-22T07:38:53.869Z,21.40
2023-04-22T07:41:40.636Z,21.20
2023-04-22T07:44:27.525Z,21.00
2023-04-22T07:47:14.060Z,20.40
2023-04-22T07:50:01.095Z,20.30
2023-04-22T07:52:48.804Z,20.50
2023-04-22T07:55:35.499Z,21.10
2023-04-22T07:58:22.617Z,21.50
2023-04-22T08:01:09.436Z,22.30
2023-04-22T08:03:56.567Z,22.90
2023-04-22T08:06:43.428Z,23.20
2023-04-22T08:09:31.623Z,23.40
2023-04-22T08:12:17.906Z,23.50
2023-04-22T08:15:04.674Z,23.20
2023-04-22T08:17:51.353Z,23.10
2023-04-22T08:20:38.155Z,23.50
2023-04-22T08:23:24.622Z,23.70
2023-04-22T08:26:15.142Z,24.20
2023-04-22T08:29:02.266Z,24.60
2023-04-22T08:31:48.874Z,25.00
2023-04-22T08:34:36.690Z,25.10
2023-04-22T08:37:23.844Z,25.30
2023-04-22T08:40:11.409Z,24.80
2023-04-22T08:42:59.235Z,24.90
2023-04-22T08:45:46.578Z,24.30
2023-04-22T08:48:33.712Z,24.30
2023-04-22T08:51:20.411Z,24.00
2023-04-22T08:54:07.271Z,23.20
2023-04-22T08:56:54.649Z,23.20
2023-04-22T08:59:42.930Z,23.10
2023-04-22T09:02:32.909Z,22.80
2023-04-22T09:05:21.141Z,22.90
2023-04-22T09:08:08.886Z,22.90
2023-04-22T09:10:55.623Z,23.10
2023-04-22T09:13:43.605Z,23.10
2023-04-22T09:16:32.996Z,23.30
2023-04-22T09:19:19.683Z,23.70
2023-04-22T09:22:06.127Z,23.60
2023-04-22T09:24:52.900Z,24.00
2023-04-22T09:27:39.456Z,24.30
2023-04-22T09:30:29.148Z,25.00
2023-04-22T09:33:17.516Z,24.90
2023-04-22T09:36:10.822Z,24.70
2023-04-22T09:38:59.493Z,23.60
2023-04-22T09:41:46.094Z,23.90
2023-04-22T09:44:35.210Z,23.60
2023-04-22T09:47:23.629Z,23.90
2023-04-22T09:50:12.652Z,24.30
2023-04-22T09:53:01.564Z,24.90
2023-04-22T09:55:50.484Z,25.50
2023-04-22T09:58:40.624Z,25.70
2023-04-22T10:01:36.950Z,26.00
2023-04-22T10:04:25.472Z,26.60
2023-04-22T10:07:15.047Z,26.60
2023-04-22T10:10:01.454Z,25.80
2023-04-22T10:12:49.543Z,25.40
2023-04-22T10:15:40.094Z,25.00
2023-04-22T10:18:29.138Z,24.40
2023-04-22T10:21:15.756Z,25.00
2023-04-22T10:24:05.872Z,25.50
2023-04-22T10:26:57.181Z,26.00
2023-04-22T10:29:44.049Z,26.30
2023-04-22T10:32:31.842Z,26.30
2023-04-22T10:35:27.189Z,26.30
2023-04-22T10:38:13.883Z,25.90
2023-04-22T10:41:03.309Z,25.30
2023-04-22T10:43:58.397Z,24.90
2023-04-22T10:46:58.850Z,24.80
2023-04-22T10:49:45.622Z,24.90
2023-04-22T10:52:32.460Z,24.90
2023-04-22T10:55:20.071Z,24.90
2023-04-22T10:58:21.096Z,25.10
2023-04-22T11:01:16.256Z,25.00
2023-04-22T11:04:22.950Z,25.20
2023-04-22T11:07:17.126Z,25.20
2023-04-22T11:10:15.709Z,25.40
2023-04-22T11:13:02.682Z,25.80
2023-04-22T11:15:53.974Z,26.60
2023-04-22T11:18:40.741Z,26.10
2023-04-22T11:21:27.639Z,25.60
2023-04-22T11:24:20.596Z,25.30
2023-04-22T11:27:07.115Z,25.30
2023-04-22T11:30:03.180Z,25.20
2023-04-22T11:32:52.498Z,25.40
2023-04-22T11:35:39.616Z,24.80
2023-04-22T11:38:26.509Z,24.50
2023-04-22T11:41:12.960Z,24.60
2023-04-22T11:44:01.384Z,24.60
2023-04-22T11:46:48.075Z,24.80
2023-04-22T11:49:35.870Z,24.50
2023-04-22T11:52:22.634Z,24.30
2023-04-22T11:55:11.872Z,24.10
2023-04-22T11:57:59.981Z,24.00
2023-04-22T12:00:48.993Z,23.90
2023-04-22T12:03:35.916Z,23.50
2023-04-22T12:06:23.914Z,22.90
2023-04-22T12:09:12.017Z,22.50
2023-04-22T12:11:59.863Z,22.30
2023-04-22T12:14:47.197Z,22.00
2023-04-22T12:17:33.578Z,21.90
2023-04-22T12:20:22.337Z,22.00
2023-04-22T12:23:18.342Z,22.10
2023-04-22T12:26:04.854Z,22.20
2023-04-22T12:28:51.932Z,22.20
2023-04-22T12:31:38.677Z,22.20
2023-04-22T12:34:25.572Z,22.20
2023-04-22T12:37:12.517Z,22.20
2023-04-22T12:40:00.142Z,22.10
2023-04-22T12:42:46.493Z,22.00
2023-04-22T12:45:32.936Z,22.00
2023-04-22T12:48:19.483Z,21.80
2023-04-22T12:51:06.351Z,21.70
2023-04-22T12:53:53.453Z,21.60
2023-04-22T12:56:41.297Z,21.80
2023-04-22T12:59:27.689Z,21.80
2023-04-22T13:02:14.984Z,21.90
2023-04-22T13:05:01.344Z,22.10
2023-04-22T13:07:59.642Z,22.10
2023-04-22T13:10:50.488Z,22.00
2023-04-22T13:13:38.477Z,22.00
2023-04-22T13:16:24.827Z,22.00
2023-04-22T13:19:11.325Z,22.00
2023-04-22T13:21:58.267Z,22.10
2023-04-22T13:24:44.670Z,22.20
2023-04-22T13:27:31.150Z,22.50
2023-04-22T13:30:18.850Z,22.60
2023-04-22T13:33:05.272Z,22.60
2023-04-22T13:35:51.631Z,22.70
2023-04-22T13:38:38.151Z,22.60
2023-04-22T13:41:24.580Z,22.40
2023-04-22T13:44:12.448Z,22.40
2023-04-22T13:47:02.556Z,22.50
2023-04-22T13:49:49.533Z,22.40
2023-04-22T13:52:36.225Z,22.30
2023-04-22T13:55:22.965Z,22.20
2023-04-22T13:58:09.366Z,22.10
2023-04-22T14:00:55.864Z,22.20
2023-04-22T14:03:44.317Z,22.40
2023-04-22T14:06:31.052Z,22.50
2023-04-22T14:09:18.581Z,22.40
2023-04-22T14:12:05.656Z,22.30
2023-04-22T14:14:52.478Z,22.40
2023-04-22T14:17:39.009Z,22.40
2023-04-22T14:20:27.181Z,22.40
2023-04-22T14:23:13.764Z,22.20
2023-04-22T14:26:00.942Z,21.90
2023-04-22T14:28:47.684Z,21.70
2023-04-22T14:31:34.491Z,21.70
2023-04-22T14:34:20.809Z,21.70
2023-04-22T14:37:08.583Z,21.40
2023-04-22T14:39:55.429Z,21.30
2023-04-22T14:42:42.022Z,21.20
2023-04-22T14:45:30.985Z,21.20
2023-04-22T14:48:17.709Z,21.10
2023-04-22T14:51:04.599Z,21.10
2023-04-22T14:53:52.501Z,21.10
2023-04-22T14:56:38.930Z,21.00
2023-04-22T14:59:26.136Z,20.90
2023-04-22T15:02:16.006Z,20.90
2023-04-22T15:05:02.933Z,20.90
2023-04-22T15:07:49.428Z,20.80
2023-04-22T15:10:37.323Z,20.80
2023-04-22T15:13:23.828Z,20.80
2023-04-22T15:16:10.700Z,20.80
2023-04-22T15:18:57.497Z,20.80
2023-04-22T15:21:44.101Z,20.70
2023-04-22T15:24:31.036Z,20.70
2023-04-22T15:27:19.611Z,20.60
2023-04-22T15:30:07.808Z,20.40
2023-04-22T15:32:54.535Z,20.40
2023-04-22T15:35:43.187Z,20.50
2023-04-22T15:38:29.589Z,20.40
2023-04-22T15:41:16.671Z,20.50
2023-04-22T15:44:07.085Z,20.40
2023-04-22T15:46:55.041Z,20.30
2023-04-22T15:49:42.406Z,20.30
2023-04-22T15:52:28.958Z,20.20
2023-04-22T15:55:15.523Z,20.20
2023-04-22T15:58:02.626Z,20.20
2023-04-22T16:00:50.415Z,20.10
2023-04-22T16:03:37.434Z,20.10
2023-04-22T16:06:24.320Z,20.10
2023-04-22T16:09:10.797Z,20.00
2023-04-22T16:11:57.195Z,20.00
2023-04-22T16:14:43.582Z,19.90
2023-04-22T16:17:31.533Z,19.90
2023-04-22T16:20:18.178Z,19.90
2023-04-22T16:23:05.312Z,19.80
2023-04-22T16:25:52.130Z,19.70
2023-04-22T16:28:38.506Z,19.70
2023-04-22T16:31:25.572Z,19.80
2023-04-22T16:34:14.021Z,19.90
2023-04-22T16:37:00.783Z,19.90
2023-04-22T16:39:47.684Z,19.90
2023-04-22T16:42:34.118Z,19.80
2023-04-22T16:45:21.344Z,19.80
2023-04-22T16:48:07.755Z,19.70
2023-04-22T16:50:55.543Z,19.60
2023-04-22T16:53:42.028Z,19.50
2023-04-22T16:56:28.751Z,19.60
2023-04-22T16:59:15.451Z,19.60
2023-04-22T17:02:02.036Z,19.60
2023-04-22T17:04:48.801Z,19.40
2023-04-22T17:07:37.282Z,19.40
2023-04-22T17:10:24.031Z,19.20
2023-04-22T17:13:10.422Z,19.20
2023-04-22T17:15:56.883Z,19.10
2023-04-22T17:18:44.104Z,19.00
2023-04-22T17:21:31.154Z,19.00
2023-04-22T17:24:21.086Z,19.00
2023-04-22T17:27:08.919Z,19.00
2023-04-22T17:29:56.179Z,19.00
2023-04-22T17:32:42.789Z,19.00
2023-04-22T17:35:29.730Z,18.90
2023-04-22T17:38:16.209Z,18.80
2023-04-22T17:41:04.767Z,18.80
2023-04-22T17:43:51.238Z,18.80
2023-04-22T17:46:37.689Z,18.70
2023-04-22T17:49:24.146Z,18.70
2023-04-22T17:52:10.408Z,18.60
2023-04-22T17:54:58.217Z,18.40
2023-04-22T17:57:47.813Z,18.30
2023-04-22T18:00:35.014Z,18.20
2023-04-22T18:03:21.829Z,18.10
2023-04-22T18:06:09.455Z,18.10
2023-04-22T18:08:55.681Z,18.00
2023-04-22T18:11:42.542Z,18.00
2023-04-22T18:14:30.563Z,17.90
2023-04-22T18:17:20.075Z,17.80
2023-04-22T18:20:17.413Z,17.80
2023-04-22T18:23:04.915Z,17.70
2023-04-22T18:25:51.314Z,17.70
2023-04-22T18:28:39.800Z,17.60
2023-04-22T18:31:28.181Z,17.60
2023-04-22T18:34:15.779Z,17.50
2023-04-22T18:37:02.497Z,17.50
2023-04-22T18:39:49.487Z,17.40
2023-04-22T18:42:36.324Z,17.30
2023-04-22T18:45:23.053Z,17.20
2023-04-22T18:48:10.986Z,17.20
2023-04-22T18:50:57.693Z,17.20
2023-04-22T18:53:44.530Z,17.10
2023-04-22T18:56:32.828Z,17.10
2023-04-22T18:59:19.307Z,17.20
2023-04-22T19:02:06.387Z,17.20
2023-04-22T19:04:54.984Z,17.20
2023-04-22T19:07:44.381Z,17.20
2023-04-22T19:10:31.944Z,17.20
2023-04-22T19:13:29.079Z,17.20
2023-04-22T19:16:16.362Z,17.20
2023-04-22T19:19:03.056Z,17.10
2023-04-22T19:21:51.305Z,17.10
2023-04-22T19:24:39.474Z,17.10
2023-04-22T19:27:25.938Z,17.10
2023-04-22T19:30:13.029Z,17.20
2023-04-22T19:32:59.761Z,17.20
2023-04-22T19:35:46.717Z,17.20
2023-04-22T19:38:34.938Z,17.20
2023-04-22T19:41:21.681Z,17.10
2023-04-22T19:44:08.350Z,17.00
2023-04-22T19:46:55.145Z,16.90
2023-04-22T19:49:42.660Z,16.80
2023-04-22T19:52:30.466Z,16.80
2023-04-22T19:55:18.583Z,16.70
2023-04-22T19:58:05.306Z,16.70
2023-04-22T20:00:52.786Z,16.60
2023-04-22T20:03:40.320Z,16.60
2023-04-22T20:06:29.297Z,16.60
2023-04-22T20:09:16.550Z,16.50
2023-04-22T20:12:04.932Z,16.40
2023-04-22T20:14:51.870Z,16.40
2023-04-22T20:17:39.464Z,16.40
2023-04-22T20:20:27.630Z,16.40
2023-04-22T20:23:15.642Z,16.40
2023-04-22T20:26:04.509Z,16.30
2023-04-22T20:28:54.008Z,16.20
2023-04-22T20:31:41.723Z,16.10
2023-04-22T20:34:30.361Z,16.10
2023-04-22T20:37:20.835Z,16.10
2023-04-22T20:40:09.274Z,16.10
2023-04-22T20:42:59.441Z,16.00
2023-04-22T20:45:47.879Z,16.10
2023-04-22T20:48:34.615Z,16.10
2023-04-22T20:51:21.262Z,16.10
2023-04-22T20:54:21.290Z,16.00
2023-04-22T20:57:15.004Z,16.00
2023-04-22T21:00:01.852Z,15.90
2023-04-22T21:02:50.525Z,15.80
2023-04-22T21:05:41.165Z,15.80
2023-04-22T21:08:28.236Z,15.80
2023-04-22T21:11:15.698Z,15.70
2023-04-22T21:14:04.105Z,15.70
2023-04-22T21:16:57.753Z,15.60
2023-04-22T21:19:48.563Z,15.50
2023-04-22T21:22:35.595Z,15.50
2023-04-22T21:25:24.242Z,15.50
2023-04-22T21:28:11.265Z,15.60
2023-04-22T21:30:58.734Z,15.50
2023-04-22T21:33:45.488Z,15.60
2023-04-22T21:36:33.573Z,15.60
2023-04-22T21:39:20.143Z,15.60
2023-04-22T21:42:08.386Z,15.50
2023-04-22T21:44:55.654Z,15.50
2023-04-22T21:47:42.124Z,15.50
2023-04-22T21:50:30.161Z,15.40
2023-04-22T21:53:19.510Z,15.50
2023-04-22T21:56:06.296Z,15.40
2023-04-22T21:58:52.654Z,15.50
2023-04-22T22:01:39.469Z,15.50
2023-04-22T22:04:26.467Z,15.40
2023-04-22T22:07:14.689Z,15.40
2023-04-22T22:10:02.449Z,15.40
2023-04-22T22:12:49.307Z,15.30
2023-04-22T22:15:36.328Z,15.40
2023-04-22T22:18:22.505Z,15.40
2023-04-22T22:21:08.909Z,15.30
2023-04-22T22:23:56.238Z,15.30
2023-04-22T22:26:44.402Z,15.40
2023-04-22T22:29:30.665Z,15.30
2023-04-22T22:32:17.021Z,15.20
2023-04-22T22:35:03.348Z,15.10
2023-04-22T22:37:49.649Z,15.10
2023-04-22T22:40:36.146Z,15.20
2023-04-22T22:43:23.758Z,15.20
2023-04-22T22:46:10.372Z,15.20
2023-04-22T22:48:57.155Z,15.20
2023-04-22T22:51:43.552Z,15.20
2023-04-22T22:54:30.532Z,15.20
2023-04-22T22:57:16.969Z,15.20
2023-04-22T23:00:06.993Z,15.20
2023-04-22T23:02:54.087Z,15.20
2023-04-22T23:05:40.832Z,15.00
2023-04-22T23:08:27.960Z,14.80
2023-04-22T23:11:14.357Z,14.80
2023-04-22T23:14:00.831Z,14.80
2023-04-22T23:16:49.452Z,14.90
2023-04-22T23:19:36.107Z,14.90
2023-04-22T23:22:23.137Z,14.90
2023-04-22T23:25:11.330Z,15.00
2023-04-22T23:27:58.104Z,15.10
2023-04-22T23:30:47.206Z,15.10
2023-04-22T23:33:41.927Z,15.00
2023-04-22T23:36:30.175Z,15.00
2023-04-22T23:39:16.833Z,14.90
2023-04-22T23:42:03.140Z,14.80
2023-04-22T23:44:49.705Z,14.70
2023-04-22T23:47:36.635Z,14.70
2023-04-22T23:50:24.973Z,14.60
2023-04-22T23:53:11.269Z,14.60
2023-04-22T23:55:57.986Z,14.50
2023-04-22T23:58:44.803Z,14.50
